sensor_id;sensor_type;location;lat;lon;timestamp;pressure;altitude;pressure_sealevel;temperature;humidity
27429;BME280;14881;48.092;11.574;2023-02-18T00:00:37;96268.03;;;11.05;100.00
27429;BME280;14881;48.092;11.574;2023-02-18T00:03:05;96272.63;;;10.94;100.00
27429;BME280;14881;48.092;11.574;2023-02-18T00:05:33;96260.41;;;11.02;100.00
27429;BME280;14881;48.092;11.574;2023-02-18T00:08:02;96265.31;;;11.00;100.00
27429;BME280;14881;48.092;11.574;2023-02-18T00:10:30;96267.47;;;10.98;100.00
27429;BME280;14881;48.092;11.574;2023-02-18T00:12:58;96263.13;;;10.92;100.00
27429;BME280;14881;48.092;11.574;2023-02-18T00:15:26;96266.16;;;10.90;100.00
27429;BME280;14881;48.092;11.574;2023-02-18T00:17:54;96258.50;;;10.97;100.00
27429;BME280;14881;48.092;11.574;2023-02-18T00:20:22;96252.81;;;11.04;100.00
27429;BME280;14881;48.092;11.574;2023-02-18T00:22:55;96249.53;;;11.07;100.00
27429;BME280;14881;48.092;11.574;2023-02-18T00:25:25;96248.72;;;10.96;100.00
27429;BME280;14881;48.092;11.574;2023-02-18T00:27:52;96237.28;;;10.94;100.00
27429;BME280;14881;48.092;11.574;2023-02-18T00:30:20;96241.41;;;10.87;100.00
27429;BME280;14881;48.092;11.574;2023-02-18T00:32:48;96240.03;;;10.74;100.00
27429;BME280;14881;48.092;11.574;2023-02-18T00:35:16;96240.59;;;10.86;100.00
27429;BME280;14881;48.092;11.574;2023-02-18T00:37:43;96243.28;;;10.81;100.00
27429;BME280;14881;48.092;11.574;2023-02-18T00:40:12;96241.66;;;10.75;100.00
27429;BME280;14881;48.092;11.574;2023-02-18T00:42:43;96249.00;;;10.69;100.00
27429;BME280;14881;48.092;11.574;2023-02-18T00:45:10;96245.75;;;10.62;100.00
27429;BME280;14881;48.092;11.574;2023-02-18T00:47:38;96250.09;;;10.58;100.00
27429;BME280;14881;48.092;11.574;2023-02-18T00:50:07;96243.03;;;10.52;100.00
27429;BME280;14881;48.092;11.574;2023-02-18T00:52:35;96245.19;;;10.45;100.00
27429;BME280;14881;48.092;11.574;2023-02-18T00:55:06;96238.69;;;10.51;100.00
27429;BME280;14881;48.092;11.574;2023-02-18T00:57:34;96247.66;;;10.67;100.00
27429;BME280;14881;48.092;11.574;2023-02-18T01:00:03;96249.28;;;10.68;100.00
27429;BME280;14881;48.092;11.574;2023-02-18T01:02:34;96250.91;;;10.74;100.00
27429;BME280;14881;48.092;11.574;2023-02-18T01:05:02;96249.28;;;10.78;100.00
27429;BME280;14881;48.092;11.574;2023-02-18T01:07:30;96243.31;;;10.86;100.00
27429;BME280;14881;48.092;11.574;2023-02-18T01:10:00;96246.28;;;10.90;100.00
27429;BME280;14881;48.092;11.574;2023-02-18T01:12:28;96247.66;;;10.87;100.00
27429;BME280;14881;48.092;11.574;2023-02-18T01:14:56;96242.75;;;10.89;100.00
27429;BME280;14881;48.092;11.574;2023-02-18T01:17:25;96243.03;;;10.82;100.00
27429;BME280;14881;48.092;11.574;2023-02-18T01:19:53;96234.88;;;10.82;100.00
27429;BME280;14881;48.092;11.574;2023-02-18T01:22:22;96238.69;;;10.87;100.00
27429;BME280;14881;48.092;11.574;2023-02-18T01:24:52;96232.41;;;10.81;100.00
27429;BME280;14881;48.092;11.574;2023-02-18T01:27:20;96223.19;;;10.77;100.00
27429;BME280;14881;48.092;11.574;2023-02-18T01:29:48;96224.25;;;10.76;100.00
27429;BME280;14881;48.092;11.574;2023-02-18T01:32:16;96224.84;;;10.73;100.00
27429;BME280;14881;48.092;11.574;2023-02-18T01:34:45;96225.66;;;10.73;100.00
27429;BME280;14881;48.092;11.574;2023-02-18T01:37:13;96225.63;;;10.68;100.00
27429;BME280;14881;48.092;11.574;2023-02-18T01:39:44;96222.38;;;10.66;100.00
27429;BME280;14881;48.092;11.574;2023-02-18T01:42:17;96219.94;;;10.70;100.00
27429;BME280;14881;48.092;11.574;2023-02-18T01:44:47;96218.03;;;10.60;100.00
27429;BME280;14881;48.092;11.574;2023-02-18T01:47:16;96223.44;;;10.60;100.00
27429;BME280;14881;48.092;11.574;2023-02-18T01:49:49;96221.28;;;10.57;100.00
27429;BME280;14881;48.092;11.574;2023-02-18T01:52:23;96227.53;;;10.63;100.00
27429;BME280;14881;48.092;11.574;2023-02-18T01:54:55;96232.44;;;10.71;100.00
27429;BME280;14881;48.092;11.574;2023-02-18T01:57:26;96225.63;;;10.78;100.00
27429;BME280;14881;48.092;11.574;2023-02-18T01:59:58;96226.72;;;10.82;100.00
27429;BME280;14881;48.092;11.574;2023-02-18T02:02:35;96219.09;;;10.85;100.00
27429;BME280;14881;48.092;11.574;2023-02-18T02:05:06;96228.63;;;10.82;100.00
27429;BME280;14881;48.092;11.574;2023-02-18T02:07:34;96230.78;;;10.80;100.00
27429;BME280;14881;48.092;11.574;2023-02-18T02:10:03;96228.34;;;10.78;100.00
27429;BME280;14881;48.092;11.574;2023-02-18T02:12:45;96223.44;;;10.80;100.00
27429;BME280;14881;48.092;11.574;2023-02-18T02:15:25;96216.66;;;10.83;100.00
27429;BME280;14881;48.092;11.574;2023-02-18T02:18:07;96213.13;;;10.88;100.00
27429;BME280;14881;48.092;11.574;2023-02-18T02:27:13;96211.75;;;10.95;100.00
27429;BME280;14881;48.092;11.574;2023-02-18T02:30:18;96205.22;;;10.96;100.00
27429;BME280;14881;48.092;11.574;2023-02-18T02:36:11;96205.22;;;11.01;100.00
27429;BME280;14881;48.092;11.574;2023-02-18T02:38:49;96203.03;;;11.03;100.00
27429;BME280;14881;48.092;11.574;2023-02-18T02:41:30;96203.59;;;11.00;100.00
27429;BME280;14881;48.092;11.574;2023-02-18T02:44:09;96200.59;;;11.02;100.00
27429;BME280;14881;48.092;11.574;2023-02-18T02:46:42;96203.59;;;11.00;100.00
27429;BME280;14881;48.092;11.574;2023-02-18T02:49:19;96199.22;;;11.04;100.00
27429;BME280;14881;48.092;11.574;2023-02-18T02:51:58;96197.06;;;11.06;100.00
27429;BME280;14881;48.092;11.574;2023-02-18T02:54:29;96187.81;;;11.07;100.00
27429;BME280;14881;48.092;11.574;2023-02-18T02:57:07;96188.31;;;11.09;100.00
27429;BME280;14881;48.092;11.574;2023-02-18T02:59:41;96185.34;;;11.11;100.00
27429;BME280;14881;48.092;11.574;2023-02-18T03:02:25;96185.91;;;11.08;100.00
27429;BME280;14881;48.092;11.574;2023-02-18T03:05:07;96175.81;;;11.08;100.00
27429;BME280;14881;48.092;11.574;2023-02-18T03:08:03;96170.13;;;11.05;100.00
27429;BME280;14881;48.092;11.574;2023-02-18T03:10:47;96169.28;;;11.09;100.00
27429;BME280;14881;48.092;11.574;2023-02-18T03:13:25;96169.06;;;11.06;100.00
27429;BME280;14881;48.092;11.574;2023-02-18T03:16:01;96176.94;;;11.02;100.00
27429;BME280;14881;48.092;11.574;2023-02-18T03:18:40;96176.66;;;10.99;100.00
27429;BME280;14881;48.092;11.574;2023-02-18T03:21:12;96172.31;;;11.03;100.00
27429;BME280;14881;48.092;11.574;2023-02-18T03:23:52;96173.13;;;11.03;100.00
27429;BME280;14881;48.092;11.574;2023-02-18T03:26:21;96179.38;;;11.04;100.00
27429;BME280;14881;48.092;11.574;2023-02-18T03:28:54;96173.94;;;11.04;100.00
27429;BME280;14881;48.092;11.574;2023-02-18T03:31:26;96170.16;;;11.00;100.00
27429;BME280;14881;48.092;11.574;2023-02-18T03:33:58;96172.31;;;11.03;100.00
27429;BME280;14881;48.092;11.574;2023-02-18T03:36:28;96178.84;;;11.02;100.00
27429;BME280;14881;48.092;11.574;2023-02-18T03:39:03;96173.41;;;11.02;100.00
27429;BME280;14881;48.092;11.574;2023-02-18T03:41:32;96175.03;;;11.03;100.00
27429;BME280;14881;48.092;11.574;2023-02-18T03:44:02;96175.84;;;11.03;100.00
27429;BME280;14881;48.092;11.574;2023-02-18T03:46:34;96175.31;;;11.01;100.00
27429;BME280;14881;48.092;11.574;2023-02-18T03:49:05;96171.78;;;11.01;100.00
27429;BME280;14881;48.092;11.574;2023-02-18T03:51:34;96168.50;;;10.99;100.00
27429;BME280;14881;48.092;11.574;2023-02-18T03:54:03;96169.88;;;10.96;100.00
27429;BME280;14881;48.092;11.574;2023-02-18T03:56:32;96179.38;;;10.94;100.00
27429;BME280;14881;48.092;11.574;2023-02-18T03:59:01;96175.59;;;10.95;100.00
27429;BME280;14881;48.092;11.574;2023-02-18T04:01:29;96165.53;;;11.00;100.00
27429;BME280;14881;48.092;11.574;2023-02-18T04:04:00;96175.59;;;11.00;100.00
27429;BME280;14881;48.092;11.574;2023-02-18T04:06:28;96177.22;;;10.96;100.00
27429;BME280;14881;48.092;11.574;2023-02-18T04:08:56;96171.50;;;10.92;100.00
27429;BME280;14881;48.092;11.574;2023-02-18T04:11:25;96167.72;;;10.88;100.00
27429;BME280;14881;48.092;11.574;2023-02-18T04:13:53;96171.81;;;10.91;100.00
27429;BME280;14881;48.092;11.574;2023-02-18T04:16:21;96170.19;;;10.90;100.00
27429;BME280;14881;48.092;11.574;2023-02-18T04:18:48;96177.50;;;10.89;100.00
27429;BME280;14881;48.092;11.574;2023-02-18T04:21:16;96172.34;;;10.82;100.00
27429;BME280;14881;48.092;11.574;2023-02-18T04:23:44;96170.44;;;10.78;100.00
27429;BME280;14881;48.092;11.574;2023-02-18T04:26:15;96160.94;;;10.75;100.00
27429;BME280;14881;48.092;11.574;2023-02-18T04:28:44;96162.84;;;10.75;100.00
27429;BME280;14881;48.092;11.574;2023-02-18T04:31:11;96167.47;;;10.74;100.00
27429;BME280;14881;48.092;11.574;2023-02-18T04:33:40;96145.16;;;10.77;100.00
27429;BME280;14881;48.092;11.574;2023-02-18T04:36:08;96164.19;;;10.77;100.00
27429;BME280;14881;48.092;11.574;2023-02-18T04:38:36;96170.19;;;10.74;100.00
27429;BME280;14881;48.092;11.574;2023-02-18T04:41:04;96170.19;;;10.74;100.00
27429;BME280;14881;48.092;11.574;2023-02-18T04:43:32;96175.09;;;10.72;100.00
27429;BME280;14881;48.092;11.574;2023-02-18T04:46:03;96174.28;;;10.72;100.00
27429;BME280;14881;48.092;11.574;2023-02-18T04:48:32;96164.78;;;10.69;100.00
27429;BME280;14881;48.092;11.574;2023-02-18T04:51:00;96173.72;;;10.70;100.00
27429;BME280;14881;48.092;11.574;2023-02-18T04:53:28;96169.66;;;10.67;100.00
27429;BME280;14881;48.092;11.574;2023-02-18T04:55:56;96173.19;;;10.68;100.00
27429;BME280;14881;48.092;11.574;2023-02-18T04:58:24;96175.38;;;10.71;100.00
27429;BME280;14881;48.092;11.574;2023-02-18T05:00:58;96184.34;;;10.66;100.00
27429;BME280;14881;48.092;11.574;2023-02-18T05:03:28;96187.59;;;10.63;100.00
27429;BME280;14881;48.092;11.574;2023-02-18T05:05:57;96185.41;;;10.65;100.00
27429;BME280;14881;48.092;11.574;2023-02-18T05:08:25;96182.97;;;10.69;100.00
27429;BME280;14881;48.092;11.574;2023-02-18T05:10:53;96184.59;;;10.65;100.00
27429;BME280;14881;48.092;11.574;2023-02-18T05:13:24;96184.88;;;10.58;100.00
27429;BME280;14881;48.092;11.574;2023-02-18T05:15:54;96167.75;;;10.63;100.00
27429;BME280;14881;48.092;11.574;2023-02-18T05:18:22;96164.75;;;10.64;100.00
27429;BME280;14881;48.092;11.574;2023-02-18T05:20:51;96152.25;;;10.63;100.00
27429;BME280;14881;48.092;11.574;2023-02-18T05:23:19;96159.34;;;10.64;100.00
27429;BME280;14881;48.092;11.574;2023-02-18T05:25:46;96172.91;;;10.69;100.00
27429;BME280;14881;48.092;11.574;2023-02-18T05:28:14;96168.03;;;10.71;100.00
27429;BME280;14881;48.092;11.574;2023-02-18T05:30:44;96153.34;;;10.72;100.00
27429;BME280;14881;48.092;11.574;2023-02-18T05:33:12;96151.44;;;10.73;100.00
27429;BME280;14881;48.092;11.574;2023-02-18T05:35:40;96152.25;;;10.73;100.00
27429;BME280;14881;48.092;11.574;2023-02-18T05:38:09;96164.50;;;10.71;100.00
27429;BME280;14881;48.092;11.574;2023-02-18T05:40:37;96164.47;;;10.76;100.00
27429;BME280;14881;48.092;11.574;2023-02-18T05:43:05;96145.16;;;10.82;100.00
27429;BME280;14881;48.092;11.574;2023-02-18T05:45:33;96149.50;;;10.84;100.00
27429;BME280;14881;48.092;11.574;2023-02-18T05:48:01;96152.22;;;10.84;100.00
27429;BME280;14881;48.092;11.574;2023-02-18T05:50:29;96155.22;;;10.82;100.00
27429;BME280;14881;48.092;11.574;2023-02-18T05:52:57;96148.69;;;10.83;100.00
27429;BME280;14881;48.092;11.574;2023-02-18T05:55:26;96152.22;;;10.78;100.00
27429;BME280;14881;48.092;11.574;2023-02-18T05:57:53;96149.25;;;10.80;100.00
27429;BME280;14881;48.092;11.574;2023-02-18T06:00:22;96146.53;;;10.75;100.00
27429;BME280;14881;48.092;11.574;2023-02-18T06:02:50;96154.13;;;10.78;100.00
27429;BME280;14881;48.092;11.574;2023-02-18T06:05:18;96150.34;;;10.84;100.00
27429;BME280;14881;48.092;11.574;2023-02-18T06:07:49;96147.63;;;10.79;100.00
27429;BME280;14881;48.092;11.574;2023-02-18T06:10:17;96151.69;;;10.76;100.00
27429;BME280;14881;48.092;11.574;2023-02-18T06:12:46;96157.41;;;10.75;100.00
27429;BME280;14881;48.092;11.574;2023-02-18T06:15:14;96148.16;;;10.76;100.00
27429;BME280;14881;48.092;11.574;2023-02-18T06:17:42;96154.41;;;10.76;100.00
27429;BME280;14881;48.092;11.574;2023-02-18T06:20:10;96171.81;;;10.80;100.00
27429;BME280;14881;48.092;11.574;2023-02-18T06:22:38;96171.00;;;10.80;100.00
27429;BME280;14881;48.092;11.574;2023-02-18T06:25:06;96166.38;;;10.80;100.00
27429;BME280;14881;48.092;11.574;2023-02-18T06:27:34;96172.06;;;10.84;100.00
27429;BME280;14881;48.092;11.574;2023-02-18T06:30:04;96163.38;;;10.82;100.00
27429;BME280;14881;48.092;11.574;2023-02-18T06:32:32;96178.34;;;10.85;100.00
27429;BME280;14881;48.092;11.574;2023-02-18T06:35:00;96170.19;;;10.79;100.00
27429;BME280;14881;48.092;11.574;2023-02-18T06:37:28;96177.50;;;10.79;100.00
27429;BME280;14881;48.092;11.574;2023-02-18T06:39:56;96179.97;;;10.86;100.00
27429;BME280;14881;48.092;11.574;2023-02-18T06:42:23;96158.75;;;10.82;100.00
27429;BME280;14881;48.092;11.574;2023-02-18T06:44:51;96168.81;;;10.82;100.00
27429;BME280;14881;48.092;11.574;2023-02-18T06:47:20;96169.91;;;10.86;100.00
27429;BME280;14881;48.092;11.574;2023-02-18T06:49:48;96166.09;;;10.87;100.00
27429;BME280;14881;48.092;11.574;2023-02-18T06:52:16;96164.19;;;10.88;100.00
27429;BME280;14881;48.092;11.574;2023-02-18T06:54:44;96162.53;;;10.92;100.00
27429;BME280;14881;48.092;11.574;2023-02-18T06:57:12;96156.53;;;10.95;100.00
27429;BME280;14881;48.092;11.574;2023-02-18T06:59:41;96156.28;;;10.91;100.00
27429;BME280;14881;48.092;11.574;2023-02-18T07:02:09;96161.72;;;11.01;100.00
27429;BME280;14881;48.092;11.574;2023-02-18T07:04:39;96157.09;;;11.02;100.00
27429;BME280;14881;48.092;11.574;2023-02-18T07:07:06;96161.16;;;11.04;100.00
27429;BME280;14881;48.092;11.574;2023-02-18T07:09:34;96145.13;;;11.08;100.00
27429;BME280;14881;48.092;11.574;2023-02-18T07:12:03;96154.59;;;11.10;100.00
27429;BME280;14881;48.092;11.574;2023-02-18T07:14:33;96154.59;;;11.10;100.00
27429;BME280;14881;48.092;11.574;2023-02-18T07:17:01;96155.69;;;11.14;100.00
27429;BME280;14881;48.092;11.574;2023-02-18T07:19:28;96143.72;;;11.15;100.00
27429;BME280;14881;48.092;11.574;2023-02-18T07:21:57;96156.22;;;11.16;100.00
27429;BME280;14881;48.092;11.574;2023-02-18T07:24:26;96156.50;;;11.15;100.00
27429;BME280;14881;48.092;11.574;2023-02-18T07:26:54;96162.78;;;11.05;100.00
27429;BME280;14881;48.092;11.574;2023-02-18T07:29:22;96155.69;;;11.09;100.00
27429;BME280;14881;48.092;11.574;2023-02-18T07:31:52;96158.69;;;11.13;100.00
27429;BME280;14881;48.092;11.574;2023-02-18T07:34:20;96160.31;;;11.09;100.00
27429;BME280;14881;48.092;11.574;2023-02-18T07:36:48;96166.28;;;11.11;100.00
27429;BME280;14881;48.092;11.574;2023-02-18T07:39:17;96170.69;;;11.07;100.00
27429;BME280;14881;48.092;11.574;2023-02-18T07:41:46;96168.50;;;11.04;100.00
27429;BME280;14881;48.092;11.574;2023-02-18T07:44:14;96157.09;;;11.02;100.00
27429;BME280;14881;48.092;11.574;2023-02-18T07:46:42;96176.38;;;11.05;100.00
27429;BME280;14881;48.092;11.574;2023-02-18T07:49:12;96164.94;;;11.08;100.00
27429;BME280;14881;48.092;11.574;2023-02-18T07:51:40;96159.75;;;11.12;100.00
27429;BME280;14881;48.092;11.574;2023-02-18T07:54:08;96165.75;;;11.14;100.00
27429;BME280;14881;48.092;11.574;2023-02-18T07:56:37;96142.63;;;11.16;100.00
27429;BME280;14881;48.092;11.574;2023-02-18T07:59:05;96156.50;;;11.15;100.00
27429;BME280;14881;48.092;11.574;2023-02-18T08:01:35;96159.19;;;11.25;100.00
27429;BME280;14881;48.092;11.574;2023-02-18T08:04:03;96150.50;;;11.23;100.00
27429;BME280;14881;48.092;11.574;2023-02-18T08:06:33;96160.28;;;11.24;100.00
27429;BME280;14881;48.092;11.574;2023-02-18T08:09:02;96145.56;;;11.30;100.00
27429;BME280;14881;48.092;11.574;2023-02-18T08:11:30;96141.53;;;11.23;100.00
27429;BME280;14881;48.092;11.574;2023-02-18T08:13:59;96135.22;;;11.32;100.00
27429;BME280;14881;48.092;11.574;2023-02-18T08:16:29;96133.03;;;11.34;100.00
27429;BME280;14881;48.092;11.574;2023-02-18T08:18:57;96122.97;;;11.40;100.00
27429;BME280;14881;48.092;11.574;2023-02-18T08:21:25;96129.44;;;11.44;100.00
27429;BME280;14881;48.092;11.574;2023-02-18T08:23:53;96122.56;;;11.62;100.00
27429;BME280;14881;48.092;11.574;2023-02-18T08:26:21;96128.78;;;11.72;100.00
27429;BME280;14881;48.092;11.574;2023-02-18T08:28:49;96123.81;;;11.84;100.00
27429;BME280;14881;48.092;11.574;2023-02-18T08:31:22;96119.72;;;11.87;100.00
27429;BME280;14881;48.092;11.574;2023-02-18T08:33:51;96104.47;;;11.86;100.00
27429;BME280;14881;48.092;11.574;2023-02-18T08:36:19;96095.19;;;11.92;100.00
27429;BME280;14881;48.092;11.574;2023-02-18T08:38:47;96105.53;;;11.90;100.00
27429;BME280;14881;48.092;11.574;2023-02-18T08:41:15;96097.00;;;12.02;100.00
27429;BME280;14881;48.092;11.574;2023-02-18T08:43:46;96099.25;;;11.95;100.00
27429;BME280;14881;48.092;11.574;2023-02-18T08:46:15;96093.28;;;11.93;100.00
27429;BME280;14881;48.092;11.574;2023-02-18T08:48:56;96098.66;;;11.98;100.00
27429;BME280;14881;48.092;11.574;2023-02-18T08:51:23;96084.50;;;12.01;100.00
27429;BME280;14881;48.092;11.574;2023-02-18T08:53:53;96076.88;;;11.98;100.00
27429;BME280;14881;48.092;11.574;2023-02-18T08:56:25;96098.50;;;11.84;100.00
27429;BME280;14881;48.092;11.574;2023-02-18T08:58:57;96097.31;;;11.95;100.00
27429;BME280;14881;48.092;11.574;2023-02-18T09:01:25;96088.03;;;12.01;100.00
27429;BME280;14881;48.092;11.574;2023-02-18T09:03:52;96095.59;;;12.09;100.00
27429;BME280;14881;48.092;11.574;2023-02-18T09:06:22;96091.50;;;12.12;100.00
27429;BME280;14881;48.092;11.574;2023-02-18T09:08:50;96096.19;;;12.01;100.00
27429;BME280;14881;48.092;11.574;2023-02-18T09:11:18;96104.53;;;12.15;100.00
27429;BME280;14881;48.092;11.574;2023-02-18T09:13:46;96103.13;;;12.23;100.00
27429;BME280;14881;48.092;11.574;2023-02-18T09:16:16;96086.75;;;12.28;100.00
27429;BME280;14881;48.092;11.574;2023-02-18T09:18:45;96072.31;;;12.27;100.00
27429;BME280;14881;48.092;11.574;2023-02-18T09:21:14;96084.75;;;12.04;100.00
27429;BME280;14881;48.092;11.574;2023-02-18T09:23:48;96111.88;;;12.14;100.00
27429;BME280;14881;48.092;11.574;2023-02-18T09:26:19;96090.97;;;12.10;100.00
27429;BME280;14881;48.092;11.574;2023-02-18T09:28:49;96079.19;;;12.14;100.00
27429;BME280;14881;48.092;11.574;2023-02-18T09:31:19;96092.94;;;11.99;100.00
27429;BME280;14881;48.092;11.574;2023-02-18T09:33:49;96087.25;;;11.96;100.00
27429;BME280;14881;48.092;11.574;2023-02-18T09:36:18;96101.91;;;12.05;100.00
27429;BME280;14881;48.092;11.574;2023-02-18T09:38:47;96087.47;;;12.33;100.00
27429;BME280;14881;48.092;11.574;2023-02-18T09:41:28;96084.47;;;12.35;100.00
27429;BME280;14881;48.092;11.574;2023-02-18T09:43:59;96082.28;;;12.37;100.00
27429;BME280;14881;48.092;11.574;2023-02-18T09:46:30;96062.31;;;12.46;100.00
27429;BME280;14881;48.092;11.574;2023-02-18T09:49:02;96051.06;;;12.53;100.00
27429;BME280;14881;48.092;11.574;2023-02-18T09:51:31;96038.31;;;12.72;100.00
27429;BME280;14881;48.092;11.574;2023-02-18T09:54:00;96046.25;;;12.93;100.00
27429;BME280;14881;48.092;11.574;2023-02-18T09:56:31;96039.69;;;12.94;100.00
27429;BME280;14881;48.092;11.574;2023-02-18T09:59:03;96026.00;;;13.22;100.00
27429;BME280;14881;48.092;11.574;2023-02-18T10:01:35;96024.09;;;13.42;100.00
27429;BME280;14881;48.092;11.574;2023-02-18T10:04:10;96018.47;;;13.52;100.00
27429;BME280;14881;48.092;11.574;2023-02-18T10:06:39;96020.72;;;13.50;100.00
27429;BME280;14881;48.092;11.574;2023-02-18T10:09:17;96024.88;;;13.99;100.00
27429;BME280;14881;48.092;11.574;2023-02-18T10:11:48;96032.09;;;13.89;100.00
27429;BME280;14881;48.092;11.574;2023-02-18T10:14:17;96016.13;;;13.83;100.00
27429;BME280;14881;48.092;11.574;2023-02-18T10:16:48;96007.09;;;13.82;100.00
27429;BME280;14881;48.092;11.574;2023-02-18T10:19:23;95993.16;;;13.84;100.00
27429;BME280;14881;48.092;11.574;2023-02-18T10:21:53;95997.06;;;13.78;100.00
27429;BME280;14881;48.092;11.574;2023-02-18T10:24:28;95987.72;;;13.98;100.00
27429;BME280;14881;48.092;11.574;2023-02-18T10:26:58;95981.69;;;14.47;100.00
27429;BME280;14881;48.092;11.574;2023-02-18T10:29:26;95983.94;;;14.86;100.00
27429;BME280;14881;48.092;11.574;2023-02-18T10:31:56;95971.75;;;14.92;100.00
27429;BME280;14881;48.092;11.574;2023-02-18T10:34:38;95978.97;;;14.88;100.00
27429;BME280;14881;48.092;11.574;2023-02-18T10:37:29;95968.81;;;14.75;100.00
27429;BME280;14881;48.092;11.574;2023-02-18T10:40:08;95977.22;;;15.06;100.00
27429;BME280;14881;48.092;11.574;2023-02-18T10:42:47;95968.13;;;14.83;100.00
27429;BME280;14881;48.092;11.574;2023-02-18T10:45:25;95965.66;;;14.95;100.00
27429;BME280;14881;48.092;11.574;2023-02-18T10:48:06;95958.06;;;15.06;100.00
27429;BME280;14881;48.092;11.574;2023-02-18T10:50:38;95954.53;;;14.78;100.00
27429;BME280;14881;48.092;11.574;2023-02-18T10:53:12;95962.84;;;15.00;100.00
27429;BME280;14881;48.092;11.574;2023-02-18T10:55:44;95953.53;;;14.74;100.00
27429;BME280;14881;48.092;11.574;2023-02-18T10:58:25;95945.31;;;14.74;100.00
27429;BME280;14881;48.092;11.574;2023-02-18T11:00:53;95932.13;;;15.03;100.00
27429;BME280;14881;48.092;11.574;2023-02-18T11:03:23;95936.91;;;14.84;100.00
27429;BME280;14881;48.092;11.574;2023-02-18T11:05:54;95920.88;;;14.91;100.00
27429;BME280;14881;48.092;11.574;2023-02-18T11:08:25;95921.03;;;15.08;100.00
27429;BME280;14881;48.092;11.574;2023-02-18T11:10:55;95905.16;;;14.96;100.00
27429;BME280;14881;48.092;11.574;2023-02-18T11:13:25;95898.47;;;15.25;100.00
27429;BME280;14881;48.092;11.574;2023-02-18T11:15:56;95895.00;;;15.69;100.00
27429;BME280;14881;48.092;11.574;2023-02-18T11:18:32;95885.00;;;15.51;100.00
27429;BME280;14881;48.092;11.574;2023-02-18T11:21:04;95875.00;;;15.69;100.00
27429;BME280;14881;48.092;11.574;2023-02-18T11:23:44;95887.97;;;16.08;100.00
27429;BME280;14881;48.092;11.574;2023-02-18T11:26:15;95877.75;;;15.99;100.00
27429;BME280;14881;48.092;11.574;2023-02-18T11:28:45;95884.97;;;15.64;100.00
27429;BME280;14881;48.092;11.574;2023-02-18T11:31:21;95846.72;;;15.82;100.00
27429;BME280;14881;48.092;11.574;2023-02-18T11:33:51;95872.19;;;16.13;100.00
27429;BME280;14881;48.092;11.574;2023-02-18T11:36:23;95869.31;;;16.18;100.00
27429;BME280;14881;48.092;11.574;2023-02-18T11:38:54;95869.25;;;16.49;100.00
27429;BME280;14881;48.092;11.574;2023-02-18T11:41:32;95869.50;;;16.70;100.00
27429;BME280;14881;48.092;11.574;2023-02-18T11:44:01;95856.75;;;16.65;100.00
27429;BME280;14881;48.092;11.574;2023-02-18T11:46:30;95879.44;;;16.97;100.00
27429;BME280;14881;48.092;11.574;2023-02-18T11:49:11;95869.88;;;16.46;100.00
27429;BME280;14881;48.092;11.574;2023-02-18T11:51:48;95867.75;;;16.26;100.00
27429;BME280;14881;48.092;11.574;2023-02-18T11:54:24;95881.03;;;16.41;100.00
27429;BME280;14881;48.092;11.574;2023-02-18T11:56:59;95869.94;;;16.15;100.00
27429;BME280;14881;48.092;11.574;2023-02-18T11:59:31;95867.56;;;16.22;100.00
27429;BME280;14881;48.092;11.574;2023-02-18T12:02:19;95849.19;;;16.23;100.00
27429;BME280;14881;48.092;11.574;2023-02-18T12:04:51;95842.59;;;16.32;100.00
27429;BME280;14881;48.092;11.574;2023-02-18T12:07:24;95853.00;;;16.13;100.00
27429;BME280;14881;48.092;11.574;2023-02-18T12:09:55;95841.69;;;16.06;100.00
27429;BME280;14881;48.092;11.574;2023-02-18T12:12:29;95842.41;;;15.58;100.00
27429;BME280;14881;48.092;11.574;2023-02-18T12:14:58;95826.50;;;15.69;100.00
27429;BME280;14881;48.092;11.574;2023-02-18T12:17:47;95816.06;;;15.80;100.00
27429;BME280;14881;48.092;11.574;2023-02-18T12:20:32;95828.03;;;15.84;100.00
27429;BME280;14881;48.092;11.574;2023-02-18T12:23:09;95832.88;;;15.87;100.00
27429;BME280;14881;48.092;11.574;2023-02-18T12:25:46;95819.09;;;16.00;100.00
27429;BME280;14881;48.092;11.574;2023-02-18T12:28:26;95821.69;;;16.06;100.00
27429;BME280;14881;48.092;11.574;2023-02-18T12:31:09;95802.75;;;15.87;100.00
27429;BME280;14881;48.092;11.574;2023-02-18T12:33:52;95802.69;;;16.09;100.00
27429;BME280;14881;48.092;11.574;2023-02-18T12:36:30;95799.06;;;16.40;100.00
27429;BME280;14881;48.092;11.574;2023-02-18T12:39:11;95788.47;;;16.07;100.00
27429;BME280;14881;48.092;11.574;2023-02-18T12:41:52;95783.75;;;15.90;100.00
27429;BME280;14881;48.092;11.574;2023-02-18T12:44:33;95779.81;;;16.22;100.00
27429;BME280;14881;48.092;11.574;2023-02-18T12:47:13;95786.94;;;16.32;100.00
27429;BME280;14881;48.092;11.574;2023-02-18T12:50:07;95805.44;;;16.18;100.00
27429;BME280;14881;48.092;11.574;2023-02-18T12:52:47;95784.72;;;15.94;100.00
27429;BME280;14881;48.092;11.574;2023-02-18T12:55:26;95797.56;;;15.85;100.00
27429;BME280;14881;48.092;11.574;2023-02-18T12:58:05;95807.59;;;15.90;100.00
27429;BME280;14881;48.092;11.574;2023-02-18T13:03:52;95784.88;;;16.55;100.00
27429;BME280;14881;48.092;11.574;2023-02-18T13:06:41;95781.16;;;16.42;100.00
27429;BME280;14881;48.092;11.574;2023-02-18T13:09:19;95800.75;;;16.10;100.00
27429;BME280;14881;48.092;11.574;2023-02-18T13:11:56;95794.88;;;15.94;100.00
27429;BME280;14881;48.092;11.574;2023-02-18T13:14:32;95781.59;;;15.79;100.00